Time;durP1;ratioP1;P1;durP2;ratioP2;P2;SDS_P1;SDS_P2;PMS_P1;PMS_P2;Temp;Humidity;BMP_temperature;BMP_pressure;BME280_temperature;BME280_humidity;BME280_pressure;Samples;Min_cycle;Max_cycle;Signal;HPM_P1;HPM_P2
2022/05/01 00:01:22;;;;;;;29.60;20.00;;;;;;;5.61;67.74;101101.39;87836;1282;94049;-66
2022/05/01 00:03:34;;;;;;;30.90;18.40;;;;;;;5.54;67.94;101106.12;87843;1282;79221;-64
2022/05/01 00:05:43;;;;;;;28.60;19.30;;;;;;;5.51;68.10;101105.16;87863;1282;82622;-67
2022/05/01 00:07:51;;;;;;;29.00;18.60;;;;;;;5.48;68.03;101105.77;87838;1282;98739;-61
2022/05/01 00:10:00;;;;;;;27.80;18.50;;;;;;;5.47;68.13;101104.64;87819;1282;88993;-62
2022/05/01 00:12:11;;;;;;;26.80;18.30;;;;;;;5.44;68.31;101102.63;87823;1282;95553;-59
2022/05/01 00:14:20;;;;;;;31.30;18.50;;;;;;;5.36;68.52;101099.14;87832;1282;78216;-60
2022/05/01 00:16:33;;;;;;;24.60;17.50;;;;;;;5.31;68.63;101100.48;87816;1282;82058;-60
2022/05/01 00:18:44;;;;;;;24.40;17.70;;;;;;;5.26;68.88;101103.17;87842;1282;99461;-63
2022/05/01 00:20:53;;;;;;;29.30;19.00;;;;;;;5.22;68.95;101101.00;87862;1282;87752;-63
2022/05/01 00:23:02;;;;;;;29.00;17.40;;;;;;;5.20;69.14;101099.39;87843;1282;95856;-66
2022/05/01 00:25:13;;;;;;;27.60;18.10;;;;;;;5.20;69.01;101101.53;87809;1282;80499;-65
2022/05/01 00:27:25;;;;;;;26.40;18.40;;;;;;;5.22;69.27;101106.02;87739;1285;80192;-61
2022/05/01 00:29:33;;;;;;;28.10;18.60;;;;;;;5.19;69.26;101100.17;87816;1282;98309;-60
2022/05/01 00:31:45;;;;;;;28.80;18.70;;;;;;;5.18;69.20;101101.52;87817;1282;87694;-66
2022/05/01 00:36:29;;;;;;;27.40;20.30;;;;;;;5.15;69.48;101097.52;87850;1282;78886;-60
2022/05/01 00:38:39;;;;;;;27.30;19.30;;;;;;;5.12;69.44;101096.18;87737;1284;81967;-60
2022/05/01 00:40:50;;;;;;;28.80;19.40;;;;;;;5.09;69.64;101095.21;87825;1282;98488;-60
2022/05/01 00:43:07;;;;;;;30.50;19.00;;;;;;;5.06;69.58;101093.54;87861;1282;88337;-59
2022/05/01 00:45:15;;;;;;;29.90;19.90;;;;;;;5.02;69.64;101094.27;87717;1282;95164;-60
2022/05/01 00:47:25;;;;;;;27.60;19.20;;;;;;;4.97;69.64;101095.21;87829;1282;79298;-60
2022/05/01 00:49:34;;;;;;;25.70;18.20;;;;;;;4.93;69.82;101094.72;87765;1284;81185;-59
2022/05/01 00:51:51;;;;;;;24.90;17.70;;;;;;;4.86;70.09;101094.96;87857;1282;99620;-61
2022/05/01 00:54:07;;;;;;;26.90;18.40;;;;;;;4.82;70.29;101092.29;87836;1282;88662;-63
2022/05/01 00:56:19;;;;;;;27.10;16.90;;;;;;;4.82;70.33;101093.22;87522;1285;94587;-64
2022/05/01 00:58:31;;;;;;;27.80;18.80;;;;;;;4.78;70.46;101088.21;87838;1282;79268;-59
2022/05/01 01:00:43;;;;;;;27.10;18.30;;;;;;;4.76;70.60;101090.52;87860;1282;82794;-60
2022/05/01 01:02:52;;;;;;;26.20;18.40;;;;;;;4.78;70.60;101088.73;87810;1282;99166;-63
2022/05/01 01:05:03;;;;;;;25.10;17.90;;;;;;;4.83;70.69;101087.79;87743;1284;89144;-59
2022/05/01 01:07:14;;;;;;;28.30;19.20;;;;;;;4.84;70.69;101086.98;87815;1282;94452;-59
2022/05/01 01:09:26;;;;;;;27.80;18.60;;;;;;;4.86;70.79;101088.59;87842;1283;80920;-59
2022/05/01 01:11:36;;;;;;;27.60;17.90;;;;;;;4.88;70.93;101092.52;87771;1284;80281;-60
2022/05/01 01:13:47;;;;;;;27.50;18.80;;;;;;;4.85;70.97;101091.02;87741;1284;99686;-64
2022/05/01 01:15:56;;;;;;;33.30;19.40;;;;;;;4.84;70.91;101091.55;87800;1282;89570;-64
2022/05/01 01:18:06;;;;;;;31.70;19.70;;;;;;;4.88;70.81;101088.95;87870;1283;93426;-66
2022/05/01 01:20:19;;;;;;;29.40;19.30;;;;;;;4.87;70.76;101085.60;87832;1282;78845;-66
2022/05/01 01:22:28;;;;;;;30.00;18.80;;;;;;;4.89;70.71;101087.27;87825;1282;83685;-60
2022/05/01 01:24:44;;;;;;;34.70;19.30;;;;;;;4.85;70.87;101088.13;87815;1283;97264;-59
2022/05/01 01:26:57;;;;;;;31.20;19.60;;;;;;;4.77;70.89;101086.13;87834;1282;87646;-60
2022/05/01 01:31:41;;;;;;;32.20;19.60;;;;;;;4.68;71.12;101089.30;87424;1284;80706;-64
2022/05/01 01:33:58;;;;;;;30.60;20.40;;;;;;;4.67;70.99;101090.77;87806;1283;82229;-63
2022/05/01 01:36:09;;;;;;;32.80;19.90;;;;;;;4.68;71.08;101090.02;87765;1284;98096;-65
2022/05/01 01:38:18;;;;;;;29.60;19.60;;;;;;;4.62;71.16;101090.66;87760;1284;89114;-63
2022/05/01 01:40:38;;;;;;;26.90;18.40;;;;;;;4.53;71.27;101087.21;87815;1282;93865;-64
2022/05/01 01:42:50;;;;;;;28.30;18.40;;;;;;;4.48;71.38;101084.98;87820;1282;81064;-64
2022/05/01 01:45:00;;;;;;;31.90;19.30;;;;;;;4.45;71.25;101083.30;87740;1284;81585;-64
2022/05/01 01:47:13;;;;;;;29.10;19.70;;;;;;;4.46;71.42;101081.09;87781;1282;99273;-65
2022/05/01 01:49:22;;;;;;;31.30;19.70;;;;;;;4.44;71.37;101076.25;87833;1282;88511;-63
2022/05/01 01:51:31;;;;;;;28.50;18.90;;;;;;;4.42;71.51;101074.52;87812;1282;94221;-65
2022/05/01 01:53:44;;;;;;;29.20;20.70;;;;;;;4.38;71.47;101072.83;87796;1282;81436;-59
2022/05/01 01:55:57;;;;;;;30.60;19.70;;;;;;;4.35;71.60;101072.73;87837;1283;83019;-58
2022/05/01 01:58:09;;;;;;;27.80;19.90;;;;;;;4.34;71.77;101074.98;87817;1282;98332;-65
2022/05/01 02:00:21;;;;;;;29.90;19.80;;;;;;;4.30;71.75;101072.17;87846;1282;88431;-65
2022/05/01 02:02:30;;;;;;;29.70;19.80;;;;;;;4.21;71.73;101072.05;87821;1282;94548;-64
2022/05/01 02:04:39;;;;;;;28.90;19.50;;;;;;;4.14;71.79;101068.69;87750;1284;79685;-64
2022/05/01 02:06:51;;;;;;;32.10;19.30;;;;;;;4.08;71.82;101067.04;87809;1282;82911;-64
2022/05/01 02:09:06;;;;;;;24.80;18.00;;;;;;;4.03;71.93;101063.94;87838;1280;99881;-64
2022/05/01 02:11:15;;;;;;;26.50;19.00;;;;;;;3.97;72.08;101063.76;87825;1282;89245;-65
2022/05/01 02:13:24;;;;;;;28.00;19.10;;;;;;;3.93;72.22;101067.82;87808;1282;95312;-59
2022/05/01 02:15:33;;;;;;;30.30;20.00;;;;;;;3.90;72.30;101068.09;87760;1284;79822;-59
2022/05/01 02:17:42;;;;;;;26.00;17.80;;;;;;;3.87;72.46;101069.61;87842;1282;82826;-69
2022/05/01 02:19:51;;;;;;;29.90;19.40;;;;;;;3.83;72.63;101070.70;87787;1283;100171;-64
2022/05/01 02:22:01;;;;;;;28.40;19.00;;;;;;;3.83;72.56;101069.23;87828;1282;87394;-63
2022/05/01 02:24:14;;;;;;;25.30;18.80;;;;;;;3.85;72.59;101068.74;87795;1283;95648;-63
2022/05/01 02:26:26;;;;;;;26.00;18.80;;;;;;;3.84;72.81;101070.94;87726;1284;78592;-64
2022/05/01 02:28:36;;;;;;;29.20;18.80;;;;;;;3.81;72.83;101069.82;87833;1282;79737;-64
2022/05/01 02:30:45;;;;;;;26.20;17.60;;;;;;;3.78;72.92;101073.79;87716;1284;98612;-63
2022/05/01 02:32:57;;;;;;;28.50;18.00;;;;;;;3.76;73.09;101073.77;87823;1282;86090;-60
2022/05/01 02:35:07;;;;;;;26.80;19.90;;;;;;;3.71;73.22;101077.08;87770;1285;93258;-60
2022/05/01 02:37:18;;;;;;;25.10;17.90;;;;;;;3.67;73.45;101076.17;87782;1282;81249;-65
2022/05/01 02:39:27;;;;;;;24.60;18.00;;;;;;;3.63;73.53;101075.23;87769;1284;80921;-63
2022/05/01 02:41:39;;;;;;;25.20;18.10;;;;;;;3.61;73.67;101074.18;87817;1282;99028;-64
2022/05/01 02:43:48;;;;;;;25.60;18.50;;;;;;;3.63;73.70;101072.79;87829;1282;87549;-64
2022/05/01 02:45:56;;;;;;;23.10;17.00;;;;;;;3.64;73.69;101074.27;87814;1283;93623;-63
2022/05/01 02:48:06;;;;;;;25.40;18.40;;;;;;;3.66;73.70;101075.17;87752;1284;80349;-63
2022/05/01 02:50:15;;;;;;;23.50;17.90;;;;;;;3.68;73.73;101070.95;87804;1283;81070;-64
2022/05/01 02:52:24;;;;;;;25.30;17.30;;;;;;;3.72;73.75;101068.77;87831;1282;99168;-66
2022/05/01 02:54:33;;;;;;;27.70;17.50;;;;;;;3.75;73.81;101071.76;87794;1283;90488;-64
2022/05/01 02:56:42;;;;;;;25.90;18.40;;;;;;;3.73;73.70;101069.59;87819;1282;95367;-63
2022/05/01 02:58:51;;;;;;;24.50;17.60;;;;;;;3.67;73.76;101076.88;87781;1282;80128;-58
2022/05/01 03:01:03;;;;;;;24.40;18.20;;;;;;;3.68;73.87;101078.42;87775;1282;82880;-59
2022/05/01 03:03:11;;;;;;;27.60;17.70;;;;;;;3.70;73.84;101077.90;87835;1283;100514;-61
2022/05/01 03:05:21;;;;;;;25.20;18.30;;;;;;;3.67;73.74;101079.20;87833;1283;88128;-60
2022/05/01 03:07:30;;;;;;;28.10;18.60;;;;;;;3.60;73.76;101076.56;87813;1283;93942;-60
2022/05/01 03:09:39;;;;;;;25.20;18.10;;;;;;;3.56;73.85;101075.49;87864;1283;81727;-59
2022/05/01 03:11:48;;;;;;;29.10;17.80;;;;;;;3.54;73.99;101077.22;87880;1282;81464;-59
2022/05/01 03:13:57;;;;;;;25.40;17.90;;;;;;;3.58;73.88;101077.08;87771;1283;99626;-57
2022/05/01 03:16:07;;;;;;;25.60;18.60;;;;;;;3.62;73.95;101079.59;87838;1283;89089;-60
2022/05/01 03:23:08;;;;;;;26.60;19.30;;;;;;;3.50;73.91;101077.38;87428;1284;81327;-58
2022/05/01 03:25:16;;;;;;;28.30;18.80;;;;;;;3.48;73.95;101079.67;87837;1283;99949;-59
2022/05/01 03:27:25;;;;;;;26.00;18.20;;;;;;;3.49;74.07;101080.17;87881;1282;88621;-67
2022/05/01 03:29:34;;;;;;;26.30;18.30;;;;;;;3.50;74.07;101080.25;87829;1284;95765;-63
2022/05/01 03:31:45;;;;;;;26.50;19.00;;;;;;;3.54;74.04;101076.55;87826;1283;79783;-63
2022/05/01 03:33:54;;;;;;;24.80;17.90;;;;;;;3.58;74.01;101079.73;87846;1284;82925;-62
2022/05/01 03:36:06;;;;;;;23.30;17.40;;;;;;;3.63;74.03;101082.36;87859;1284;99531;-59
2022/05/01 03:38:17;;;;;;;24.30;17.50;;;;;;;3.69;74.24;101080.95;87871;1283;87860;-60
2022/05/01 03:40:26;;;;;;;27.50;17.00;;;;;;;3.78;74.31;101076.48;87877;1284;96433;-62
2022/05/01 03:42:34;;;;;;;26.10;17.50;;;;;;;3.87;74.30;101082.27;87773;1284;78807;-64
2022/05/01 03:44:43;;;;;;;26.20;18.00;;;;;;;3.98;74.33;101083.66;87747;1287;82823;-64
2022/05/01 03:46:52;;;;;;;25.80;17.80;;;;;;;4.13;74.11;101086.45;87612;1284;314786;-63
2022/05/01 03:49:01;;;;;;;25.40;17.60;;;;;;;4.31;74.12;101085.80;87818;1284;88742;-63
2022/05/01 03:51:10;;;;;;;23.60;18.40;;;;;;;4.45;74.10;101084.89;87765;1284;93092;-65
2022/05/01 03:53:18;;;;;;;27.60;17.70;;;;;;;4.62;74.18;101081.46;87822;1283;78272;-60
2022/05/01 03:55:28;;;;;;;22.70;17.70;;;;;;;4.79;74.28;101083.13;87817;1283;81212;-59
2022/05/01 03:57:37;;;;;;;24.90;18.70;;;;;;;4.92;74.08;101079.66;87870;1284;99481;-60
2022/05/01 03:59:47;;;;;;;24.90;18.80;;;;;;;5.21;73.99;101080.92;87846;1283;88309;-62
2022/05/01 04:01:56;;;;;;;24.50;18.20;;;;;;;5.77;73.74;101073.98;87754;1283;94448;-61
2022/05/01 04:04:05;;;;;;;25.10;19.80;;;;;;;6.22;73.16;101074.75;87839;1284;77244;-66
2022/05/01 04:06:14;;;;;;;28.50;20.40;;;;;;;6.78;72.70;101072.89;87848;1284;80498;-64
2022/05/01 04:08:23;;;;;;;26.90;19.50;;;;;;;7.46;72.44;101067.74;87782;1284;99562;-64
2022/05/01 04:10:35;;;;;;;27.70;19.90;;;;;;;7.86;71.53;101070.66;87860;1284;88296;-65
2022/05/01 04:12:46;;;;;;;23.10;17.40;;;;;;;7.96;70.77;101071.02;87815;1283;93303;-64
2022/05/01 04:14:58;;;;;;;25.30;19.00;;;;;;;7.74;71.00;101074.17;87812;1284;82344;-64
2022/05/01 04:17:08;;;;;;;27.70;19.40;;;;;;;8.01;71.31;101071.60;87788;1284;82815;-65
2022/05/01 04:19:17;;;;;;;23.80;18.80;;;;;;;8.68;70.04;101075.21;87837;1283;98715;-64
2022/05/01 04:21:27;;;;;;;25.40;18.40;;;;;;;8.75;69.09;101074.80;87829;1283;88616;-64
2022/05/01 04:23:38;;;;;;;26.80;19.60;;;;;;;8.61;69.24;101074.67;87825;1284;95484;-60
2022/05/01 04:25:48;;;;;;;24.80;19.50;;;;;;;8.70;68.75;101073.05;87827;1283;78175;-61
2022/05/01 04:28:01;;;;;;;27.40;19.20;;;;;;;9.11;68.78;101075.11;87841;1284;82415;-59
2022/05/01 04:30:14;;;;;;;25.60;18.80;;;;;;;9.55;68.11;101067.43;87831;1284;98233;-65
2022/05/01 04:32:23;;;;;;;23.40;18.70;;;;;;;10.11;67.71;101062.05;87780;1284;89131;-60
2022/05/01 04:34:32;;;;;;;23.60;17.90;;;;;;;11.56;67.28;101063.03;87815;1284;95559;-60
2022/05/01 04:36:42;;;;;;;22.60;17.80;;;;;;;13.22;65.81;101064.09;87822;1283;78710;-60
2022/05/01 04:38:54;;;;;;;20.70;17.10;;;;;;;14.44;63.67;101058.63;87783;1284;82333;-65
2022/05/01 04:41:04;;;;;;;21.10;15.40;;;;;;;15.40;61.92;101057.91;87818;1284;97280;-65
2022/05/01 04:43:19;;;;;;;19.40;16.10;;;;;;;15.99;60.71;101058.52;87759;1284;88702;-61
2022/05/01 04:45:28;;;;;;;19.80;15.60;;;;;;;16.85;59.77;101060.95;87778;1284;93256;-60
2022/05/01 04:47:37;;;;;;;18.70;15.10;;;;;;;17.60;58.34;101058.45;87825;1284;78329;-60
2022/05/01 04:49:46;;;;;;;16.40;13.40;;;;;;;18.16;57.65;101053.66;87811;1284;80869;-59
2022/05/01 04:51:58;;;;;;;18.60;14.80;;;;;;;18.88;56.63;101055.30;87823;1283;98315;-61
2022/05/01 04:54:07;;;;;;;15.80;13.70;;;;;;;19.51;55.31;101055.44;87806;1284;88074;-64
2022/05/01 04:58:49;;;;;;;12.40;10.90;;;;;;;21.24;51.26;101050.01;87777;1284;78776;-60
2022/05/01 05:01:00;;;;;;;15.20;10.50;;;;;;;21.56;48.49;101052.32;87852;1283;81940;-62
2022/05/01 05:03:12;;;;;;;13.10;9.80;;;;;;;21.74;47.43;101051.85;87525;1284;98942;-64
2022/05/01 05:05:22;;;;;;;11.80;9.10;;;;;;;22.56;46.35;101048.98;87776;1284;89109;-66
2022/05/01 05:07:35;;;;;;;11.90;9.30;;;;;;;23.37;44.87;101048.64;87837;1284;95573;-67
2022/05/01 05:09:57;;;;;;;10.80;9.00;;;;;;;23.65;44.13;101044.38;87831;1283;80492;-66
2022/05/01 05:12:10;;;;;;;11.20;9.20;;;;;;;24.04;42.99;101043.37;87808;1284;83592;-65
2022/05/01 05:14:19;;;;;;;12.10;9.80;;;;;;;24.43;42.20;101044.58;87836;1283;99916;-65
2022/05/01 05:16:29;;;;;;;10.80;9.70;;;;;;;25.03;41.10;101043.81;87804;1284;89984;-65
2022/05/01 05:18:42;;;;;;;10.40;8.80;;;;;;;25.48;39.98;101044.74;87840;1283;95510;-66
2022/05/01 05:20:52;;;;;;;11.30;9.00;;;;;;;25.98;39.15;101046.69;87797;1283;79831;-66
2022/05/01 05:23:01;;;;;;;10.40;9.30;;;;;;;26.33;38.53;101045.30;87857;1283;81211;-69
2022/05/01 05:25:19;;;;;;;9.90;9.00;;;;;;;26.57;37.77;101044.21;87842;1283;99553;-67
2022/05/01 05:27:28;;;;;;;11.50;10.30;;;;;;;26.46;37.18;101045.67;87841;1282;87541;-61
2022/05/01 05:29:41;;;;;;;10.90;9.80;;;;;;;26.38;36.62;101048.28;87801;1283;93706;-61
2022/05/01 05:31:54;;;;;;;11.60;9.50;;;;;;;26.18;36.20;101049.66;87802;1284;79376;-58
2022/05/01 05:34:03;;;;;;;11.60;9.40;;;;;;;26.68;35.28;101050.09;87842;1283;82232;-68
2022/05/01 05:36:15;;;;;;;9.50;8.50;;;;;;;26.95;34.67;101047.55;87803;1284;98113;-69
2022/05/01 05:38:24;;;;;;;9.60;8.70;;;;;;;27.46;34.23;101048.02;87772;1284;88134;-66
2022/05/01 05:40:38;;;;;;;10.10;9.00;;;;;;;27.64;33.42;101049.11;87822;1283;94219;-68
2022/05/01 05:42:48;;;;;;;9.90;8.80;;;;;;;27.64;33.33;101048.34;87815;1284;78988;-68
2022/05/01 05:45:00;;;;;;;9.90;8.20;;;;;;;27.62;32.01;101047.95;87817;1282;80286;-68
2022/05/01 05:47:09;;;;;;;9.50;8.50;;;;;;;27.81;32.02;101047.05;87812;1283;99666;-61
2022/05/01 05:49:18;;;;;;;10.10;8.70;;;;;;;28.14;31.78;101043.11;87784;1284;88879;-60
2022/05/01 05:51:27;;;;;;;10.50;9.40;;;;;;;28.14;31.42;101044.90;87768;1284;93679;-60
2022/05/01 05:53:36;;;;;;;9.60;8.60;;;;;;;27.84;30.80;101045.20;87840;1283;80687;-67
2022/05/01 05:55:48;;;;;;;11.50;10.30;;;;;;;27.72;30.70;101044.95;87841;1283;81326;-59
2022/05/01 05:57:57;;;;;;;13.10;11.20;;;;;;;27.62;31.02;101047.51;87806;1282;100350;-60
2022/05/01 06:00:07;;;;;;;11.30;10.10;;;;;;;27.19;31.11;101050.46;87809;1283;89059;-60
2022/05/01 06:02:19;;;;;;;13.10;11.80;;;;;;;27.12;30.91;101055.65;87864;1284;93675;-60
2022/05/01 06:04:28;;;;;;;14.20;11.60;;;;;;;26.81;30.59;101057.51;87826;1284;77940;-59
2022/05/01 06:06:36;;;;;;;16.50;13.50;;;;;;;26.74;30.99;101056.56;87779;1284;82826;-61
2022/05/01 06:08:45;;;;;;;16.40;14.20;;;;;;;26.82;31.27;101053.56;87840;1283;99924;-60
2022/05/01 06:10:54;;;;;;;18.60;13.90;;;;;;;26.99;30.91;101056.86;87827;1283;89106;-61
2022/05/01 06:13:02;;;;;;;18.70;13.70;;;;;;;27.18;30.31;101056.56;87816;1283;95179;-65
2022/05/01 06:15:13;;;;;;;20.00;15.00;;;;;;;27.27;30.20;101056.97;87823;1283;80308;-66
2022/05/01 06:17:22;;;;;;;20.30;15.90;;;;;;;27.59;30.21;101058.34;87782;1282;80577;-62
2022/05/01 06:19:30;;;;;;;20.20;15.40;;;;;;;28.19;30.36;101055.86;87827;1282;100108;-61
2022/05/01 06:21:39;;;;;;;20.20;16.30;;;;;;;28.72;30.07;101058.06;87783;1283;88964;-61
2022/05/01 06:23:48;;;;;;;21.20;16.30;;;;;;;29.30;29.44;101059.39;87811;1282;95491;-61
2022/05/01 06:25:57;;;;;;;19.40;15.10;;;;;;;29.47;28.55;101059.39;87831;1282;79947;-60
2022/05/01 06:28:08;;;;;;;21.20;15.60;;;;;;;29.17;28.29;101061.48;87863;1283;82035;-68
2022/05/01 06:30:18;;;;;;;21.30;16.20;;;;;;;29.29;28.33;101065.56;87842;1283;99746;-66
2022/05/01 06:32:28;;;;;;;20.70;14.90;;;;;;;29.98;27.96;101068.83;87829;1282;89524;-63
2022/05/01 06:34:37;;;;;;;19.30;14.50;;;;;;;30.61;27.28;101065.18;87788;1282;93980;-61
2022/05/01 06:36:46;;;;;;;17.70;12.90;;;;;;;30.91;26.87;101064.30;87817;1282;77983;-62
2022/05/01 06:38:55;;;;;;;18.10;13.70;;;;;;;30.69;26.80;101067.89;87830;1282;83244;-64
2022/05/01 06:41:08;;;;;;;18.30;13.30;;;;;;;30.05;26.60;101065.64;87782;1284;100017;-63
2022/05/01 06:43:21;;;;;;;18.90;13.90;;;;;;;29.33;26.58;101063.63;87816;1283;88746;-67
2022/05/01 06:45:30;;;;;;;16.60;12.60;;;;;;;29.17;26.78;101064.41;87804;1282;94961;-67
2022/05/01 06:47:38;;;;;;;13.70;12.10;;;;;;;29.32;26.80;101066.27;87843;1283;79751;-67
2022/05/01 06:49:47;;;;;;;14.00;11.70;;;;;;;29.28;26.16;101064.77;87808;1283;80799;-67
2022/05/01 06:51:59;;;;;;;11.50;9.60;;;;;;;29.55;26.33;101066.31;87790;1283;99688;-67
2022/05/01 06:54:10;;;;;;;10.30;9.00;;;;;;;29.86;26.00;101070.58;87844;1282;87548;-61
2022/05/01 06:56:18;;;;;;;13.20;10.00;;;;;;;30.17;25.48;101069.04;87839;1282;95949;-60
2022/05/01 06:58:31;;;;;;;14.80;11.10;;;;;;;30.14;25.14;101071.48;87859;1282;78705;-67
2022/05/01 07:00:40;;;;;;;14.50;10.30;;;;;;;30.67;25.18;101068.98;87832;1283;82489;-68
2022/05/01 07:02:51;;;;;;;9.60;7.00;;;;;;;30.87;24.91;101065.31;87855;1283;98536;-61
2022/05/01 07:05:00;;;;;;;8.50;7.20;;;;;;;31.21;24.80;101061.54;87846;1282;89708;-62
2022/05/01 07:07:09;;;;;;;10.00;8.50;;;;;;;31.44;24.57;101060.34;87814;1283;94731;-61
2022/05/01 07:09:17;;;;;;;9.50;6.70;;;;;;;31.16;24.26;101058.34;87833;1282;78501;-64
2022/05/01 07:11:26;;;;;;;7.10;5.60;;;;;;;31.27;24.06;101058.54;87768;1284;81197;-61
2022/05/01 07:13:36;;;;;;;8.30;6.30;;;;;;;31.34;23.64;101058.75;87779;1284;97846;-60
2022/05/01 07:15:45;;;;;;;6.60;5.90;;;;;;;30.97;23.74;101061.98;87786;1284;90091;-61
2022/05/01 07:17:54;;;;;;;6.40;5.60;;;;;;;30.74;23.90;101060.86;87827;1282;95503;-62
2022/05/01 07:20:08;;;;;;;6.30;5.00;;;;;;;30.41;23.61;101060.78;87753;1284;80072;-63
2022/05/01 07:22:18;;;;;;;5.50;4.90;;;;;;;29.37;24.05;101064.61;87835;1282;81516;-68
2022/05/01 07:24:27;;;;;;;7.40;5.50;;;;;;;28.23;24.32;101058.94;87770;1284;100081;-68
2022/05/01 07:26:37;;;;;;;8.00;5.60;;;;;;;27.82;24.40;101063.77;87855;1282;87511;-69
2022/05/01 07:28:45;;;;;;;7.90;5.20;;;;;;;27.45;24.48;101064.91;87855;1282;95276;-71
2022/05/01 07:30:58;;;;;;;5.10;4.20;;;;;;;27.22;24.79;101063.21;87836;1282;81095;-67
2022/05/01 07:33:13;;;;;;;5.20;4.70;;;;;;;27.35;24.99;101064.66;87843;1282;82194;-67
2022/05/01 07:35:22;;;;;;;7.60;4.80;;;;;;;27.63;24.74;101066.98;87806;1282;99544;-67
2022/05/01 07:37:33;;;;;;;5.60;4.90;;;;;;;28.25;25.04;101066.09;87868;1282;88342;-66
2022/05/01 07:39:42;;;;;;;4.30;3.90;;;;;;;29.11;24.57;101065.39;87847;1282;95130;-68
2022/05/01 07:41:51;;;;;;;4.80;4.20;;;;;;;29.31;23.85;101067.35;87749;1283;79537;-68
2022/05/01 07:44:00;;;;;;;5.70;4.40;;;;;;;29.39;23.47;101065.35;87856;1282;82260;-68
2022/05/01 07:46:12;;;;;;;6.00;3.90;;;;;;;29.37;23.55;101066.27;87836;1282;99543;-67
2022/05/01 07:48:21;;;;;;;9.60;4.70;;;;;;;29.46;23.50;101068.88;87834;1282;87765;-61
2022/05/01 07:50:30;;;;;;;4.90;4.10;;;;;;;29.45;23.43;101064.11;87766;1284;95081;-62
2022/05/01 07:52:39;;;;;;;6.80;5.00;;;;;;;29.35;23.59;101062.34;87838;1282;79444;-64
2022/05/01 07:54:51;;;;;;;4.70;4.10;;;;;;;29.51;23.59;101064.70;87829;1282;81366;-61
2022/05/01 07:57:00;;;;;;;4.30;3.10;;;;;;;29.34;22.97;101061.40;87858;1282;99669;-63
2022/05/01 07:59:09;;;;;;;4.20;3.60;;;;;;;29.05;22.32;101055.10;87858;1282;88665;-63
2022/05/01 08:01:18;;;;;;;4.30;3.50;;;;;;;28.65;22.72;101059.52;87816;1282;95925;-64
2022/05/01 08:05:53;;;;;;;5.40;4.10;;;;;;;28.25;23.01;101050.41;87789;1284;81623;-63
2022/05/01 08:08:03;;;;;;;5.10;3.80;;;;;;;27.80;23.24;101051.55;87856;1282;98148;-66
2022/05/01 08:10:15;;;;;;;5.40;3.90;;;;;;;27.69;23.27;101051.30;87838;1282;88949;-69
2022/05/01 08:12:25;;;;;;;5.20;3.90;;;;;;;27.53;23.22;101050.39;87842;1282;95557;-67
2022/05/01 08:14:34;;;;;;;4.30;3.90;;;;;;;27.11;23.16;101042.98;87818;1282;79470;-67
2022/05/01 08:16:44;;;;;;;6.40;4.50;;;;;;;27.24;23.24;101046.23;87784;1284;81951;-68
2022/05/01 08:21:21;;;;;;;6.80;3.60;;;;;;;28.31;23.39;101046.21;87820;1282;88823;-68
2022/05/01 08:23:30;;;;;;;3.80;3.40;;;;;;;28.79;22.70;101043.83;87760;1283;95376;-63
2022/05/01 08:25:42;;;;;;;5.90;3.60;;;;;;;29.03;22.28;101047.44;87867;1282;77924;-63
2022/05/01 08:27:53;;;;;;;4.10;3.30;;;;;;;28.95;21.81;101045.15;87864;1282;81151;-64
2022/05/01 08:30:02;;;;;;;4.10;2.90;;;;;;;28.18;21.34;101044.23;87783;1284;100370;-63
2022/05/01 08:32:13;;;;;;;4.70;3.30;;;;;;;27.66;21.31;101048.92;87842;1282;89157;-68
2022/05/01 08:34:25;;;;;;;5.20;3.20;;;;;;;27.92;22.21;101040.87;87778;1284;94648;-70
2022/05/01 08:36:34;;;;;;;4.30;3.70;;;;;;;28.21;22.93;101034.45;87819;1282;79039;-69
2022/05/01 08:38:43;;;;;;;3.80;3.40;;;;;;;28.26;22.75;101038.25;87867;1282;82748;-69
2022/05/01 08:40:55;;;;;;;3.70;2.70;;;;;;;28.68;22.43;101039.02;87786;1284;99979;-71
2022/05/01 08:43:06;;;;;;;4.10;2.80;;;;;;;29.16;21.73;101037.99;87827;1282;88807;-64
2022/05/01 08:47:41;;;;;;;5.50;3.40;;;;;;;29.02;21.66;101033.37;87540;1284;79859;-63
2022/05/01 08:49:57;;;;;;;5.50;3.10;;;;;;;28.93;22.21;101029.64;87611;1284;82014;-63
2022/05/01 08:52:12;;;;;;;5.80;2.60;;;;;;;29.31;21.49;101029.09;87623;1284;99962;-63
2022/05/01 08:54:20;;;;;;;4.80;3.30;;;;;;;29.39;21.24;101026.75;87605;1284;88534;-64
2022/05/01 08:56:34;;;;;;;3.90;3.10;;;;;;;29.35;21.23;101024.64;87559;1284;93933;-69
2022/05/01 08:58:48;;;;;;;4.10;2.80;;;;;;;29.20;20.87;101024.98;87590;1284;80414;-69
2022/05/01 09:01:00;;;;;;;3.40;2.90;;;;;;;29.01;20.93;101024.88;87569;1284;82228;-61
2022/05/01 09:03:12;;;;;;;3.90;3.20;;;;;;;28.66;21.22;101018.02;87598;1284;97837;-63
2022/05/01 09:05:24;;;;;;;2.60;2.40;;;;;;;28.36;21.48;101016.25;87731;1283;88287;-64
2022/05/01 09:07:33;;;;;;;3.50;2.30;;;;;;;28.26;21.51;101017.63;87591;1284;94452;-62
2022/05/01 09:09:45;;;;;;;4.40;2.20;;;;;;;27.93;21.47;101014.42;87740;1284;78118;-63
2022/05/01 09:14:24;;;;;;;4.70;2.20;;;;;;;27.07;21.51;101015.33;87566;1284;99130;-68
2022/05/01 09:16:37;;;;;;;3.30;2.40;;;;;;;26.82;21.68;101015.36;87735;1284;89502;-63
2022/05/01 09:18:49;;;;;;;4.40;2.20;;;;;;;26.52;20.91;101019.55;87577;1284;95439;-64
2022/05/01 09:21:08;;;;;;;5.20;2.50;;;;;;;25.81;20.51;101020.48;87576;1284;77922;-68
2022/05/01 09:23:20;;;;;;;4.00;2.30;;;;;;;25.10;20.97;101022.79;87702;1284;82634;-68
2022/05/01 09:25:32;;;;;;;5.10;2.90;;;;;;;24.92;21.43;101011.92;87563;1284;98924;-62
2022/05/01 09:27:44;;;;;;;4.80;3.10;;;;;;;25.02;21.88;101015.45;87571;1284;88543;-59
2022/05/01 09:32:39;;;;;;;;;;;;;;;24.87;22.96;101011.02;85460;1308;600927;-64
2022/05/01 09:34:52;;;;;;;3.30;2.50;;;;;;;24.81;23.34;101010.92;87526;1287;78520;-65
2022/05/01 09:37:04;;;;;;;5.60;2.80;;;;;;;24.91;23.31;101006.17;87459;1287;83540;-59
2022/05/01 09:39:20;;;;;;;3.60;2.70;;;;;;;25.12;23.79;101010.09;87459;1285;97804;-58
2022/05/01 09:41:31;;;;;;;5.80;3.80;;;;;;;25.14;23.02;101006.10;87605;1282;88762;-63
2022/05/01 09:43:42;;;;;;;7.40;3.50;;;;;;;24.91;22.77;101002.70;87560;1287;95787;-65
2022/05/01 09:45:51;;;;;;;5.50;3.60;;;;;;;24.77;22.99;100999.34;87414;1284;291145;-59
2022/05/01 09:48:01;;;;;;;3.90;2.60;;;;;;;24.62;23.27;100996.36;87811;1284;82935;-58
2022/05/01 09:50:14;;;;;;;4.50;2.70;;;;;;;24.56;23.45;100999.20;87891;1281;96883;-63
2022/05/01 09:52:22;;;;;;;3.40;2.60;;;;;;;24.61;23.49;100995.70;87877;1281;89551;-63
2022/05/01 09:54:31;;;;;;;4.20;2.30;;;;;;;24.83;23.85;100995.17;87890;1281;95229;-65
2022/05/01 09:56:52;;;;;;;3.60;2.40;;;;;;;24.71;23.92;100991.66;87864;1281;78522;-65
2022/05/01 09:59:05;;;;;;;3.70;2.60;;;;;;;24.34;24.22;100992.60;87904;1281;81655;-64
2022/05/01 10:01:16;;;;;;;4.70;2.80;;;;;;;24.33;24.43;100996.84;88024;1279;98913;-58
2022/05/01 10:03:29;;;;;;;3.60;2.80;;;;;;;24.36;24.24;100992.00;88089;1277;89097;-57
2022/05/01 10:05:37;;;;;;;3.50;2.80;;;;;;;24.37;24.34;100991.07;88134;1277;95728;-64
2022/05/01 10:07:47;;;;;;;3.70;2.40;;;;;;;24.24;24.04;100990.31;88072;1278;79005;-64
2022/05/01 10:09:57;;;;;;;3.10;2.10;;;;;;;24.30;24.22;100990.45;88136;1277;81506;-64
2022/05/01 10:12:10;;;;;;;4.50;2.20;;;;;;;24.12;24.27;100991.36;88070;1281;97257;-58
2022/05/01 10:14:21;;;;;;;3.90;2.80;;;;;;;23.99;24.46;100992.61;88113;1277;89284;-61
2022/05/01 10:16:31;;;;;;;5.20;2.60;;;;;;;23.92;24.67;100989.24;88028;1281;94974;-64
2022/05/01 10:18:40;;;;;;;3.50;2.30;;;;;;;23.64;24.36;100992.30;88038;1280;79706;-64
2022/05/01 10:20:50;;;;;;;3.70;1.80;;;;;;;23.66;23.96;100988.56;88117;1277;81363;-64
2022/05/01 10:23:02;;;;;;;5.60;2.30;;;;;;;23.65;24.09;100981.88;88070;1277;97672;-64
2022/05/01 10:25:17;;;;;;;4.10;2.00;;;;;;;23.63;24.28;100981.86;88091;1277;88730;-63
2022/05/01 10:27:38;;;;;;;4.00;2.10;;;;;;;23.44;24.42;100981.84;88045;1277;95123;-56